Portada
METAR-TAF:

METAR-TAF

Aeroports :

Richmond, Austràlia

latitud: 20-42-07S, longitud: 143-06-53E, altitud: 206 m

Observació

L'informe es va fer fa 46 minuts, a les 10:00 UTC
Vent calma
Temperatura 35°C
Humitat 23%
Pressió 1005 hPa
Visibilitat 10 km o més

METAR: YRMD 181000Z AUTO 00000KT 9999 // NCD 35/11 Q1005

Hora: 20:46 (10:46 UTC)

Pronòstic

L'informe es va fer fa 16 hores i 56 minuts, a les 17:50 UTC
Pronòstic vàlid del 17 a les 20 UTC al 18 a les 08 UTC
Vent 5 kt del Nord-Est
Visibilitat 10 km o més
sense núvols per sota de 1500 mi sense presència de cumulonimbus.
A partir de les 18 a les 0500 UTC
Vent 4 kt del Sud/Sud-Est
Visibilitat 10 km o més
sense núvols per sota de 1500 mi sense presència de cumulonimbus.

TAF: YRMD 171750Z 1720/1808 04005KT CAVOK FM180500 16004KT CAVOK

Observacions i pronòstics meteorològics de més de 4000 aeroports (METAR i TAF).

Les estacions disponibles són els punts grocs i vermells al mapa.

Posi el ratolí al punt desitjat per veure el nom de l'estació.

Feu clic per veure les observacions i els pronòstics meteorològics.

Per canviar el mapa: feu clic els botons verds amb una creu de color negre per apropar; al botó verd amb un guió per allunyar la imatge; o en les fletxes verdes per a mapes adjacents.


METAR-TAF: